Impacts METAR Board INFO
IDs:

KLGA - New York/La Guardia, NY, US

Updated at: 1120 UTC 11 Dec 2017
Potential Impact None Slight Moderate High
Time10/23Z 11/00Z 11/01Z 11/02Z 11/03Z 11/04Z 11/05Z 11/06Z 11/07Z 11/08Z 11/09Z 11/10Z 11/11Z
VIS10 10 10 10 10 10 10 10 10 10 10 10 10
CIG-- -- 150 150 150 110 110 90 100 95 95 60 55
CoverSCTSCTBKNBKNOVCOVCOVCOVCOVCOVCOVCOVCOVC
FltCatVFRVFRVFRVFRVFRVFRVFRVFRVFRVFRVFRVFRVFR
WX--------------------------
WDir260230220240240240230240240230250250240
WSpd14 11 11 11 12 9 10 11 12 9 9 10 9
WGst24 -- -- 19 -- -- -- 16 -- -- -- -- --
Raw hourly METARs
KLGA 102251Z 26014G24KT 10SM FEW040 SCT060 03/M06 A2998 RMK AO2 SLP153 T00331061 $
KLGA 102351Z 23011KT 10SM SCT055 03/M07 A2999 RMK AO2 SLP155 4/002 T00331067 10044 20033 51015 $
KLGA 110051Z 22011KT 10SM SCT046 BKN150 03/M06 A3000 RMK AO2 SLP159 T00281056 $
KLGA 110151Z 24011G19KT 10SM FEW046 BKN150 03/M06 A3001 RMK AO2 SLP160 T00281056 $
KLGA 110251Z 24012KT 10SM FEW050 OVC150 03/M07 A3001 RMK AO2 SLP161 T00281067 51007 $
KLGA 110351Z 24009KT 10SM FEW050 SCT090 OVC110 03/M07 A3001 RMK AO2 SLP163 T00281067 $
KLGA 110451Z 23010KT 10SM OVC110 03/M06 A3001 RMK AO2 SLP163 T00281061 400440000 $
KLGA 110551Z 24011G16KT 10SM BKN090 OVC110 03/M06 A3000 RMK AO2 SLP159 4/002 T00281061 10033 20028 58002 $
KLGA 110651Z 24012KT 10SM OVC100 03/M06 A2999 RMK AO2 SLP156 T00281061 $
KLGA 110751Z 23009KT 10SM OVC095 03/M06 A2998 RMK AO2 SLP152 T00281061 $
KLGA 110851Z 25009KT 10SM OVC095 03/M06 A2999 RMK AO2 SLP154 T00281061 55005 $
KLGA 110951Z 25010KT 10SM FEW038 BKN060 OVC070 02/M06 A3000 RMK AO2 SLP157 T00221056 $
KLGA 111051Z 24009KT 10SM BKN055 OVC070 02/M05 A3001 RMK AO2 SLP161 T00171050 $